createdAt,value
2018-03-18T00:01:59.930Z,-4.00
2018-03-18T00:04:27.594Z,-4.10
2018-03-18T00:06:56.022Z,-4.00
2018-03-18T00:09:23.643Z,-4.10
2018-03-18T00:11:51.392Z,-4.00
2018-03-18T00:14:19.043Z,-4.00
2018-03-18T00:16:46.717Z,-4.10
2018-03-18T00:19:14.417Z,-4.10
2018-03-18T00:21:42.061Z,-4.10
2018-03-18T00:24:09.655Z,-4.10
2018-03-18T00:26:37.311Z,-4.10
2018-03-18T00:29:04.976Z,-4.10
2018-03-18T00:31:33.341Z,-4.10
2018-03-18T00:34:01.674Z,-4.10
2018-03-18T00:36:30.137Z,-4.10
2018-03-18T00:38:57.753Z,-4.10
2018-03-18T00:41:25.451Z,-4.10
2018-03-18T00:43:53.144Z,-4.10
2018-03-18T00:46:21.620Z,-4.10
2018-03-18T00:48:49.218Z,-4.20
2018-03-18T00:51:28.783Z,-4.10
2018-03-18T00:53:56.380Z,-4.10
2018-03-18T00:56:24.087Z,-4.10
2018-03-18T00:58:51.791Z,-4.10
2018-03-18T01:01:19.442Z,-4.10
2018-03-18T01:03:47.117Z,-4.10
2018-03-18T01:06:14.780Z,-4.10
2018-03-18T01:08:42.419Z,-4.10
2018-03-18T01:11:10.030Z,-4.10
2018-03-18T01:13:37.795Z,-4.10
2018-03-18T01:16:05.458Z,-4.10
2018-03-18T01:18:33.112Z,-4.10
2018-03-18T01:21:00.772Z,-4.10
2018-03-18T01:23:28.417Z,-4.10
2018-03-18T01:25:56.016Z,-4.10
2018-03-18T01:28:23.634Z,-4.10
2018-03-18T01:31:57.621Z,-4.20
2018-03-18T01:34:26.094Z,-4.10
2018-03-18T01:36:53.730Z,-4.20
2018-03-18T01:39:21.598Z,-4.10
2018-03-18T01:41:49.308Z,-4.10
2018-03-18T01:44:17.062Z,-4.10
2018-03-18T01:46:45.648Z,-4.10
2018-03-18T01:49:13.247Z,-4.20
2018-03-18T01:51:41.100Z,-4.10
2018-03-18T01:54:08.718Z,-4.10
2018-03-18T01:56:36.408Z,-4.10
2018-03-18T01:59:04.026Z,-4.10
2018-03-18T02:01:31.865Z,-4.20
2018-03-18T02:04:00.406Z,-4.20
2018-03-18T02:06:29.247Z,-4.20
2018-03-18T02:08:57.730Z,-4.20
2018-03-18T02:11:26.372Z,-4.20
2018-03-18T02:13:54.304Z,-4.20
2018-03-18T02:16:22.447Z,-4.20
2018-03-18T02:18:50.154Z,-4.10
2018-03-18T02:21:17.784Z,-4.20
2018-03-18T02:23:46.641Z,-4.20
2018-03-18T02:26:15.178Z,-4.20
2018-03-18T02:28:43.036Z,-4.20
2018-03-18T02:31:10.923Z,-4.20
2018-03-18T02:33:39.004Z,-4.20
2018-03-18T02:36:06.648Z,-4.20
2018-03-18T02:38:34.281Z,-4.20
2018-03-18T02:41:01.948Z,-4.20
2018-03-18T02:43:29.609Z,-4.20
2018-03-18T02:45:57.267Z,-4.20
2018-03-18T02:48:24.892Z,-4.20
2018-03-18T02:50:52.512Z,-4.20
2018-03-18T02:53:20.154Z,-4.20
2018-03-18T02:55:47.838Z,-4.20
2018-03-18T02:58:15.441Z,-4.20
2018-03-18T03:00:43.092Z,-4.20
2018-03-18T03:03:11.507Z,-4.20
2018-03-18T03:05:39.196Z,-4.30
2018-03-18T03:08:06.794Z,-4.20
2018-03-18T03:10:34.428Z,-4.20
2018-03-18T03:13:05.200Z,-4.20
2018-03-18T03:15:33.069Z,-4.20
2018-03-18T03:18:00.731Z,-4.20
2018-03-18T03:20:28.459Z,-4.20
2018-03-18T03:22:56.161Z,-4.20
2018-03-18T03:25:24.625Z,-4.20
2018-03-18T03:27:52.268Z,-4.30
2018-03-18T03:30:20.028Z,-4.20
2018-03-18T03:32:49.041Z,-4.20
2018-03-18T03:35:16.684Z,-4.20
2018-03-18T03:37:44.708Z,-4.20
2018-03-18T03:40:12.327Z,-4.20
2018-03-18T03:42:41.405Z,-4.30
2018-03-18T03:45:09.103Z,-4.30
2018-03-18T03:47:36.719Z,-4.30
2018-03-18T03:50:04.348Z,-4.30
2018-03-18T03:52:31.973Z,-4.30
2018-03-18T03:54:59.611Z,-4.30
2018-03-18T03:57:27.270Z,-4.30
2018-03-18T03:59:55.579Z,-4.30
2018-03-18T04:02:23.169Z,-4.30
2018-03-18T04:04:50.826Z,-4.30
2018-03-18T04:07:18.429Z,-4.30
2018-03-18T04:09:46.006Z,-4.30
2018-03-18T04:12:13.640Z,-4.30
2018-03-18T04:14:42.006Z,-4.30
2018-03-18T04:17:09.667Z,-4.30
2018-03-18T04:19:37.330Z,-4.30
2018-03-18T04:22:04.969Z,-4.40
2018-03-18T04:24:32.591Z,-4.40
2018-03-18T04:27:00.224Z,-4.40
2018-03-18T04:29:28.040Z,-4.40
2018-03-18T04:31:55.631Z,-4.40
2018-03-18T04:34:23.239Z,-4.40
2018-03-18T04:36:50.838Z,-4.40
2018-03-18T04:39:18.442Z,-4.40
2018-03-18T04:41:46.132Z,-4.40
2018-03-18T04:44:14.511Z,-4.50
2018-03-18T04:46:42.101Z,-4.50
2018-03-18T04:49:09.777Z,-4.40
2018-03-18T04:51:38.176Z,-4.40
2018-03-18T04:54:06.530Z,-4.40
2018-03-18T04:56:34.157Z,-4.50
2018-03-18T04:59:01.737Z,-4.40
2018-03-18T05:01:29.376Z,-4.40
2018-03-18T05:03:57.731Z,-4.50
2018-03-18T05:06:26.152Z,-4.40
2018-03-18T05:08:53.760Z,-4.50
2018-03-18T05:11:21.430Z,-4.40
2018-03-18T05:13:49.055Z,-4.40
2018-03-18T05:16:16.662Z,-4.40
2018-03-18T05:18:45.036Z,-4.50
2018-03-18T05:21:13.454Z,-4.50
2018-03-18T05:23:41.211Z,-4.50
2018-03-18T05:26:09.625Z,-4.40
2018-03-18T05:28:37.344Z,-4.50
2018-03-18T05:31:05.096Z,-4.50
2018-03-18T05:33:32.778Z,-4.60
2018-03-18T05:36:00.391Z,-4.50
2018-03-18T05:38:30.830Z,-4.60
2018-03-18T05:40:59.218Z,-4.60
2018-03-18T05:43:26.824Z,-4.60
2018-03-18T05:45:55.260Z,-4.60
2018-03-18T05:48:22.978Z,-4.70
2018-03-18T05:50:50.660Z,-4.70
2018-03-18T05:53:18.358Z,-4.70
2018-03-18T05:55:46.406Z,-4.70
2018-03-18T05:58:14.107Z,-4.70
2018-03-18T06:00:41.873Z,-4.70
2018-03-18T06:03:09.510Z,-4.70
2018-03-18T06:05:39.305Z,-4.70
2018-03-18T06:08:07.720Z,-4.70
2018-03-18T06:10:35.400Z,-4.70
2018-03-18T06:13:03.834Z,-4.70
2018-03-18T06:15:31.457Z,-4.80
2018-03-18T06:17:59.127Z,-4.80
2018-03-18T06:20:26.839Z,-4.80
2018-03-18T06:22:55.564Z,-4.80
2018-03-18T06:25:24.057Z,-4.80
2018-03-18T06:27:51.780Z,-4.80
2018-03-18T06:30:19.538Z,-4.80
2018-03-18T06:32:47.152Z,-4.80
2018-03-18T06:35:15.642Z,-4.80
2018-03-18T06:37:44.057Z,-4.80
2018-03-18T06:40:11.705Z,-4.80
2018-03-18T06:42:40.111Z,-4.70
2018-03-18T06:45:08.554Z,-4.80
2018-03-18T06:47:36.185Z,-4.70
2018-03-18T06:50:03.799Z,-4.70
2018-03-18T06:52:31.444Z,-4.70
2018-03-18T06:54:59.115Z,-4.80
2018-03-18T06:57:26.800Z,-4.70
2018-03-18T06:59:54.864Z,-4.80
2018-03-18T07:02:22.591Z,-4.80
2018-03-18T07:04:50.213Z,-4.80
2018-03-18T07:07:17.993Z,-4.70
2018-03-18T07:09:45.628Z,-4.70
2018-03-18T07:12:13.333Z,-4.70
2018-03-18T07:14:41.031Z,-4.70
2018-03-18T07:17:09.540Z,-4.70
2018-03-18T07:19:37.277Z,-4.60
2018-03-18T07:22:05.824Z,-4.60
2018-03-18T07:24:33.717Z,-4.60
2018-03-18T07:27:01.401Z,-4.60
2018-03-18T07:29:29.681Z,-4.60
2018-03-18T07:31:57.325Z,-4.50
2018-03-18T07:34:25.053Z,-4.50
2018-03-18T07:36:53.908Z,-4.50
2018-03-18T07:39:21.643Z,-4.60
2018-03-18T07:41:49.845Z,-4.50
2018-03-18T07:44:17.530Z,-4.50
2018-03-18T07:46:45.225Z,-4.50
2018-03-18T07:49:12.876Z,-4.50
2018-03-18T07:51:40.562Z,-4.50
2018-03-18T07:54:08.767Z,-4.50
2018-03-18T07:56:37.498Z,-4.50
2018-03-18T07:59:05.998Z,-4.40
2018-03-18T08:01:33.611Z,-4.50
2018-03-18T08:04:01.232Z,-4.40
2018-03-18T08:06:28.878Z,-4.40
2018-03-18T08:08:56.598Z,-4.40
2018-03-18T08:11:25.152Z,-4.40
2018-03-18T08:14:01.292Z,-4.30
2018-03-18T08:16:29.539Z,-4.30
2018-03-18T08:18:57.237Z,-4.20
2018-03-18T08:21:25.108Z,-4.20
2018-03-18T08:23:52.855Z,-4.20
2018-03-18T08:26:20.623Z,-4.20
2018-03-18T08:28:48.222Z,-4.10
2018-03-18T08:31:16.616Z,-4.20
2018-03-18T08:33:44.951Z,-4.10
2018-03-18T08:36:12.795Z,-4.20
2018-03-18T08:38:41.147Z,-3.90
2018-03-18T08:41:08.773Z,-3.90
2018-03-18T08:43:36.357Z,-3.80
2018-03-18T08:46:03.950Z,-3.70
2018-03-18T08:48:31.549Z,-3.60
2018-03-18T08:50:59.197Z,-3.60
2018-03-18T08:53:26.778Z,-3.60
2018-03-18T08:55:54.395Z,-3.60
2018-03-18T08:58:22.910Z,-3.50
2018-03-18T09:00:50.528Z,-3.60
2018-03-18T09:03:18.110Z,-3.50
2018-03-18T09:05:46.557Z,-3.50
2018-03-18T09:08:14.150Z,-3.50
2018-03-18T09:10:41.752Z,-3.40
2018-03-18T09:13:09.393Z,-3.40
2018-03-18T09:15:37.044Z,-3.30
2018-03-18T09:18:04.677Z,-3.30
2018-03-18T09:20:33.054Z,-3.10
2018-03-18T09:23:00.657Z,-3.10
2018-03-18T09:25:29.078Z,-3.00
2018-03-18T09:27:57.435Z,-3.00
2018-03-18T09:30:26.357Z,-2.80
2018-03-18T09:32:54.882Z,-2.80
2018-03-18T09:35:23.048Z,-2.60
2018-03-18T09:37:50.882Z,-2.60
2018-03-18T09:40:18.909Z,-2.60
2018-03-18T09:42:47.356Z,-2.70
2018-03-18T09:45:15.351Z,-2.80
2018-03-18T09:47:43.727Z,-2.70
2018-03-18T09:50:11.294Z,-2.80
2018-03-18T09:52:39.148Z,-2.70
2018-03-18T09:55:06.864Z,-2.70
2018-03-18T09:57:35.484Z,-2.60
2018-03-18T10:00:03.166Z,-2.70
2018-03-18T10:02:32.946Z,-2.60
2018-03-18T10:05:00.600Z,-2.70
2018-03-18T10:07:28.275Z,-2.50
2018-03-18T10:09:56.029Z,-2.50
2018-03-18T10:12:24.248Z,-2.40
2018-03-18T10:14:54.929Z,-2.50
2018-03-18T10:17:23.517Z,-2.40
2018-03-18T10:19:52.113Z,-2.30
2018-03-18T10:22:20.484Z,-2.20
2018-03-18T10:24:48.170Z,-2.30
2018-03-18T10:27:16.828Z,-2.00
2018-03-18T10:29:44.793Z,-2.10
2018-03-18T10:32:12.486Z,-2.00
2018-03-18T10:34:40.392Z,-2.00
2018-03-18T10:37:08.051Z,-2.00
2018-03-18T10:39:35.713Z,-1.90
2018-03-18T10:42:04.022Z,-1.80
2018-03-18T10:44:31.710Z,-1.80
2018-03-18T10:46:59.401Z,-1.70
2018-03-18T10:49:26.994Z,-1.70
2018-03-18T10:51:55.414Z,-1.30
2018-03-18T10:54:23.508Z,-1.60
2018-03-18T10:56:51.172Z,-1.40
2018-03-18T10:59:18.822Z,-1.30
2018-03-18T11:04:51.851Z,-1.30
2018-03-18T11:07:19.551Z,-1.30
2018-03-18T11:09:47.395Z,-1.30
2018-03-18T11:12:15.335Z,-1.30
2018-03-18T11:14:43.860Z,-1.10
2018-03-18T11:17:11.726Z,-1.20
2018-03-18T11:19:40.407Z,-1.10
2018-03-18T11:22:08.067Z,-1.00
2018-03-18T11:24:35.678Z,-0.90
2018-03-18T11:27:03.245Z,-0.80
2018-03-18T11:29:30.820Z,-0.80
2018-03-18T11:31:58.578Z,-0.60
2018-03-18T11:34:26.160Z,-0.50
2018-03-18T11:36:53.815Z,-0.40
2018-03-18T11:39:21.422Z,-0.20
2018-03-18T11:41:48.995Z,-0.20
2018-03-18T11:44:16.603Z,-0.10
2018-03-18T11:46:44.233Z,0.10
2018-03-18T11:49:12.595Z,0.30
2018-03-18T11:51:40.926Z,0.30
2018-03-18T11:54:09.258Z,0.30
2018-03-18T11:56:36.864Z,0.20
2018-03-18T11:59:04.495Z,0.30
2018-03-18T12:01:32.100Z,0.30
2018-03-18T12:03:59.680Z,0.30
2018-03-18T12:06:27.267Z,0.30
2018-03-18T12:08:58.116Z,0.60
2018-03-18T12:11:25.767Z,0.50
2018-03-18T12:13:53.382Z,0.60
2018-03-18T12:16:21.717Z,0.70
2018-03-18T12:18:49.341Z,0.70
2018-03-18T12:21:17.834Z,0.60
2018-03-18T12:23:45.485Z,0.50
2018-03-18T12:26:13.160Z,0.40
2018-03-18T12:28:40.764Z,0.30
2018-03-18T12:31:09.181Z,0.10
2018-03-18T12:33:36.774Z,0.10
2018-03-18T12:36:05.971Z,0.20
2018-03-18T12:38:34.601Z,0.30
2018-03-18T12:41:02.176Z,0.20
2018-03-18T12:43:29.850Z,0.40
2018-03-18T12:45:57.477Z,0.30
2018-03-18T12:48:25.093Z,0.30
2018-03-18T12:50:52.982Z,0.30
2018-03-18T12:53:23.490Z,0.30
2018-03-18T12:55:51.109Z,0.40
2018-03-18T12:58:19.558Z,0.40
2018-03-18T13:00:47.207Z,0.30
2018-03-18T13:03:16.010Z,0.30
2018-03-18T13:05:43.677Z,0.10
2018-03-18T13:08:11.277Z,-0.10
2018-03-18T13:10:39.033Z,-0.20
2018-03-18T13:13:06.682Z,-0.30
2018-03-18T13:15:34.363Z,-0.30
2018-03-18T13:18:03.300Z,-0.30
2018-03-18T13:20:31.078Z,-0.30
2018-03-18T13:22:58.705Z,-0.20
2018-03-18T13:25:27.034Z,-0.20
2018-03-18T13:27:54.927Z,-0.20
2018-03-18T13:30:22.600Z,-0.20
2018-03-18T13:32:50.249Z,-0.30
2018-03-18T13:35:17.894Z,-0.40
2018-03-18T13:37:46.308Z,-0.20
2018-03-18T13:40:13.877Z,-0.30
2018-03-18T13:42:41.526Z,-0.10
2018-03-18T13:45:09.180Z,0.00
2018-03-18T13:47:36.938Z,0.10
2018-03-18T13:50:04.539Z,0.30
2018-03-18T13:52:32.161Z,0.50
2018-03-18T13:54:59.840Z,0.60
2018-03-18T13:57:27.412Z,0.60
2018-03-18T13:59:55.148Z,0.60
2018-03-18T14:02:22.844Z,0.60
2018-03-18T14:04:50.461Z,0.70
2018-03-18T14:07:18.109Z,0.70
2018-03-18T14:09:45.712Z,0.70
2018-03-18T14:12:13.327Z,0.70
2018-03-18T14:14:40.955Z,0.70
2018-03-18T14:17:08.510Z,0.60
2018-03-18T14:19:36.134Z,0.60
2018-03-18T14:22:04.633Z,0.80
2018-03-18T14:24:32.245Z,0.70
2018-03-18T14:26:59.814Z,0.70
2018-03-18T14:29:28.092Z,0.70
2018-03-18T14:31:57.750Z,0.60
2018-03-18T14:34:26.645Z,0.60
2018-03-18T14:36:55.865Z,0.50
2018-03-18T14:39:23.990Z,0.50
2018-03-18T14:41:52.386Z,0.70
2018-03-18T14:44:20.085Z,0.60
2018-03-18T14:46:47.754Z,0.60
2018-03-18T14:49:15.371Z,0.60
2018-03-18T14:51:43.014Z,0.50
2018-03-18T14:54:10.687Z,0.40
2018-03-18T14:56:39.474Z,0.40
2018-03-18T14:59:07.146Z,0.30
2018-03-18T15:01:34.761Z,0.30
2018-03-18T15:04:02.322Z,0.30
2018-03-18T15:06:29.915Z,0.30
2018-03-18T15:08:57.489Z,0.20
2018-03-18T15:11:25.065Z,0.20
2018-03-18T15:13:52.720Z,0.20
2018-03-18T15:16:20.332Z,0.10
2018-03-18T15:18:48.502Z,0.20
2018-03-18T15:21:16.167Z,0.20
2018-03-18T15:23:43.767Z,0.20
2018-03-18T15:26:12.173Z,0.20
2018-03-18T15:28:39.756Z,0.20
2018-03-18T15:31:07.379Z,0.30
2018-03-18T15:33:34.965Z,0.40
2018-03-18T15:36:03.449Z,0.30
2018-03-18T15:38:31.052Z,0.20
2018-03-18T15:40:58.685Z,0.20
2018-03-18T15:43:26.298Z,0.10
2018-03-18T15:45:54.027Z,0.00
2018-03-18T15:48:22.397Z,-0.10
2018-03-18T15:50:50.342Z,-0.20
2018-03-18T15:53:18.251Z,-0.20
2018-03-18T15:55:47.503Z,-0.20
2018-03-18T15:58:15.438Z,-0.20
2018-03-18T16:00:43.139Z,-0.20
2018-03-18T16:03:10.768Z,-0.20
2018-03-18T16:05:40.866Z,-0.20
2018-03-18T16:08:08.470Z,-0.20
2018-03-18T16:10:36.148Z,-0.30
2018-03-18T16:13:03.765Z,-0.30
2018-03-18T16:15:31.422Z,-0.30
2018-03-18T16:17:59.053Z,-0.30
2018-03-18T16:20:26.808Z,-0.40
2018-03-18T16:22:54.480Z,-0.40
2018-03-18T16:25:23.259Z,-0.40
2018-03-18T16:27:51.694Z,-0.50
2018-03-18T16:30:33.114Z,-0.60
2018-03-18T16:33:00.710Z,-0.50
2018-03-18T16:35:28.373Z,-0.50
2018-03-18T16:37:56.055Z,-0.60
2018-03-18T16:40:23.771Z,-0.60
2018-03-18T16:42:52.129Z,-0.60
2018-03-18T16:45:19.976Z,-0.70
2018-03-18T16:47:47.626Z,-0.70
2018-03-18T16:50:15.231Z,-0.70
2018-03-18T16:52:42.899Z,-0.80
2018-03-18T16:55:10.816Z,-0.90
2018-03-18T16:57:39.899Z,-0.90
2018-03-18T17:00:09.139Z,-1.00
2018-03-18T17:02:38.418Z,-1.10
2018-03-18T17:05:06.189Z,-1.10
2018-03-18T17:07:34.296Z,-1.10
2018-03-18T17:10:02.049Z,-1.10
2018-03-18T17:12:29.791Z,-1.20
2018-03-18T17:14:57.537Z,-1.20
2018-03-18T17:17:25.383Z,-1.20
2018-03-18T17:19:53.872Z,-1.30
2018-03-18T17:22:23.008Z,-1.40
2018-03-18T17:24:52.342Z,-1.40
2018-03-18T17:27:21.134Z,-1.50
2018-03-18T17:29:48.773Z,-1.50
2018-03-18T17:32:18.310Z,-1.50
2018-03-18T17:34:46.030Z,-1.50
2018-03-18T17:37:15.203Z,-1.50
2018-03-18T17:39:44.345Z,-1.60
2018-03-18T17:42:12.081Z,-1.60
2018-03-18T17:44:53.569Z,-1.70
2018-03-18T17:47:33.875Z,-1.80
2018-03-18T17:50:13.798Z,-1.80
2018-03-18T17:52:55.707Z,-1.80
2018-03-18T17:55:34.336Z,-1.90
2018-03-18T17:58:03.957Z,-1.90
2018-03-18T18:00:32.594Z,-1.90
2018-03-18T18:03:00.209Z,-1.90
2018-03-18T18:05:27.777Z,-2.00
2018-03-18T18:07:56.496Z,-2.00
2018-03-18T18:10:24.581Z,-2.10
2018-03-18T18:12:53.945Z,-2.10
2018-03-18T18:15:21.865Z,-2.10
2018-03-18T18:17:51.027Z,-2.10
2018-03-18T18:20:20.133Z,-2.10
2018-03-18T18:22:49.112Z,-2.10
2018-03-18T18:25:18.206Z,-2.20
2018-03-18T18:27:46.623Z,-2.30
2018-03-18T18:30:14.185Z,-2.30
2018-03-18T18:32:42.966Z,-2.30
2018-03-18T18:35:12.895Z,-2.30
2018-03-18T18:37:42.416Z,-2.30
2018-03-18T18:40:11.121Z,-2.40
2018-03-18T18:42:40.350Z,-2.40
2018-03-18T18:45:09.640Z,-2.40
2018-03-18T18:47:38.162Z,-2.40
2018-03-18T18:50:07.418Z,-2.50
2018-03-18T18:52:35.316Z,-2.50
2018-03-18T18:55:03.900Z,-2.50
2018-03-18T18:57:33.170Z,-2.50
2018-03-18T19:00:01.546Z,-2.60
2018-03-18T19:02:30.285Z,-2.50
2018-03-18T19:04:58.622Z,-2.50
2018-03-18T19:07:26.358Z,-2.50
2018-03-18T19:09:55.595Z,-2.50
2018-03-18T19:12:25.122Z,-2.60
2018-03-18T19:14:53.620Z,-2.50
2018-03-18T19:17:22.271Z,-2.60
2018-03-18T19:19:50.806Z,-2.60
2018-03-18T19:22:18.485Z,-2.60
2018-03-18T19:24:46.969Z,-2.60
2018-03-18T19:27:14.725Z,-2.60
2018-03-18T19:29:43.081Z,-2.60
2018-03-18T19:32:10.781Z,-2.60
2018-03-18T19:34:38.798Z,-2.60
2018-03-18T19:37:06.515Z,-2.70
2018-03-18T19:39:34.671Z,-2.70
2018-03-18T19:42:04.238Z,-2.70
2018-03-18T19:44:34.231Z,-2.70
2018-03-18T19:47:02.333Z,-2.70
2018-03-18T19:49:31.253Z,-2.70
2018-03-18T19:51:59.350Z,-2.80
2018-03-18T19:54:27.409Z,-2.70
2018-03-18T19:56:55.849Z,-2.80
2018-03-18T19:59:23.966Z,-2.80
2018-03-18T20:01:53.542Z,-2.90
2018-03-18T20:04:22.269Z,-3.00
2018-03-18T20:06:50.457Z,-2.90
2018-03-18T20:09:19.113Z,-2.90
2018-03-18T20:11:47.278Z,-2.90
2018-03-18T20:14:15.405Z,-2.90
2018-03-18T20:16:43.546Z,-3.00
2018-03-18T20:19:12.236Z,-3.00
2018-03-18T20:21:40.881Z,-3.10
2018-03-18T20:24:08.897Z,-3.10
2018-03-18T20:26:37.845Z,-3.10
2018-03-18T20:29:05.961Z,-3.10
2018-03-18T20:31:35.224Z,-3.10
2018-03-18T20:34:03.473Z,-3.10
2018-03-18T20:36:31.618Z,-3.10
2018-03-18T20:38:59.645Z,-3.10
2018-03-18T20:41:28.296Z,-3.10
2018-03-18T20:43:56.338Z,-3.10
2018-03-18T20:46:26.240Z,-3.10
2018-03-18T20:48:54.336Z,-3.10
2018-03-18T20:51:22.526Z,-3.10
2018-03-18T20:53:51.338Z,-3.20
2018-03-18T20:56:20.284Z,-3.10
2018-03-18T20:58:48.447Z,-3.20
2018-03-18T21:01:17.374Z,-3.10
2018-03-18T21:03:47.033Z,-3.20
2018-03-18T21:06:15.472Z,-3.20
2018-03-18T21:08:47.165Z,-3.20
2018-03-18T21:11:15.497Z,-3.20
2018-03-18T21:13:44.901Z,-3.30
2018-03-18T21:16:14.276Z,-3.30
2018-03-18T21:18:43.255Z,-3.30
2018-03-18T21:21:12.658Z,-3.30
2018-03-18T21:23:43.037Z,-3.30
2018-03-18T21:26:10.641Z,-3.40
2018-03-18T21:28:38.389Z,-3.40
2018-03-18T21:31:06.821Z,-3.40
2018-03-18T21:33:34.402Z,-3.50
2018-03-18T21:36:02.056Z,-3.40
2018-03-18T21:38:29.702Z,-3.40
2018-03-18T21:40:58.137Z,-3.40
2018-03-18T21:43:26.527Z,-3.50
2018-03-18T21:45:54.154Z,-3.40
2018-03-18T21:48:22.519Z,-3.50
2018-03-18T21:50:51.279Z,-3.50
2018-03-18T21:53:19.012Z,-3.50
2018-03-18T21:55:46.936Z,-3.50
2018-03-18T21:58:14.553Z,-3.50
2018-03-18T22:00:42.133Z,-3.50
2018-03-18T22:03:10.715Z,-3.50
2018-03-18T22:05:38.822Z,-3.60
2018-03-18T22:08:07.252Z,-3.60
2018-03-18T22:10:34.865Z,-3.60
2018-03-18T22:13:02.581Z,-3.60
2018-03-18T22:15:30.906Z,-3.60
2018-03-18T22:17:58.596Z,-3.70
2018-03-18T22:20:26.280Z,-3.60
2018-03-18T22:22:53.892Z,-3.70
2018-03-18T22:25:22.406Z,-3.70
2018-03-18T22:27:50.055Z,-3.80
2018-03-18T22:30:18.428Z,-3.80
2018-03-18T22:32:46.800Z,-3.90
2018-03-18T22:35:14.425Z,-3.90
2018-03-18T22:37:42.290Z,-3.90
2018-03-18T22:40:09.939Z,-3.90
2018-03-18T22:42:37.665Z,-3.90
2018-03-18T22:45:05.276Z,-3.90
2018-03-18T22:47:32.868Z,-3.90
2018-03-18T22:50:00.435Z,-3.90
2018-03-18T22:52:28.054Z,-3.90
2018-03-18T22:54:55.619Z,-3.90
2018-03-18T22:57:23.259Z,-3.90
2018-03-18T22:59:50.834Z,-3.90
2018-03-18T23:02:19.180Z,-4.00
2018-03-18T23:04:46.761Z,-4.00
2018-03-18T23:07:14.376Z,-4.00
2018-03-18T23:09:42.519Z,-4.00
2018-03-18T23:12:10.179Z,-4.00
2018-03-18T23:14:38.156Z,-4.10
2018-03-18T23:17:05.735Z,-4.00
2018-03-18T23:19:33.303Z,-4.10
2018-03-18T23:22:00.886Z,-4.10
2018-03-18T23:24:28.489Z,-4.10
2018-03-18T23:26:56.059Z,-4.10
2018-03-18T23:29:23.680Z,-4.10
2018-03-18T23:31:51.354Z,-4.10
2018-03-18T23:34:18.973Z,-4.20
2018-03-18T23:36:46.571Z,-4.20
2018-03-18T23:39:14.978Z,-4.20
2018-03-18T23:41:42.577Z,-4.30
2018-03-18T23:44:10.222Z,-4.20
2018-03-18T23:46:37.840Z,-4.20
2018-03-18T23:49:05.499Z,-4.20
2018-03-18T23:51:33.088Z,-4.20
2018-03-18T23:54:00.710Z,-4.20
2018-03-18T23:56:29.050Z,-4.20
2018-03-18T23:58:56.688Z,-4.20
